createdAt,value
2023-04-13T00:01:20.326Z,100.00
2023-04-13T00:03:48.571Z,100.00
2023-04-13T00:06:16.697Z,100.00
2023-04-13T00:08:45.140Z,100.00
2023-04-13T00:11:14.206Z,100.00
2023-04-13T00:13:47.527Z,100.00
2023-04-13T00:16:18.009Z,100.00
2023-04-13T00:18:46.219Z,100.00
2023-04-13T00:21:17.260Z,100.00
2023-04-13T00:23:45.662Z,100.00
2023-04-13T00:26:14.016Z,100.00
2023-04-13T00:28:42.409Z,100.00
2023-04-13T00:31:10.811Z,100.00
2023-04-13T00:33:41.740Z,100.00
2023-04-13T00:36:10.365Z,100.00
2023-04-13T00:38:39.178Z,100.00
2023-04-13T00:41:08.034Z,100.00
2023-04-13T00:43:36.144Z,100.00
2023-04-13T00:46:04.319Z,100.00
2023-04-13T00:48:32.469Z,100.00
2023-04-13T00:51:02.683Z,100.00
2023-04-13T00:53:31.117Z,100.00
2023-04-13T00:55:59.182Z,100.00
2023-04-13T00:58:27.689Z,100.00
2023-04-13T01:00:55.936Z,100.00
2023-04-13T01:03:25.759Z,100.00
2023-04-13T01:05:57.515Z,100.00
2023-04-13T01:08:31.055Z,100.00
2023-04-13T01:11:03.500Z,100.00
2023-04-13T01:13:34.371Z,100.00
2023-04-13T01:16:06.458Z,100.00
2023-04-13T01:18:38.607Z,100.00
2023-04-13T01:21:08.358Z,100.00
2023-04-13T01:23:52.918Z,100.00
2023-04-13T01:26:22.802Z,100.00
2023-04-13T01:28:53.046Z,100.00
2023-04-13T01:31:22.508Z,100.00
2023-04-13T01:33:51.419Z,100.00
2023-04-13T01:36:19.588Z,100.00
2023-04-13T01:38:48.423Z,100.00
2023-04-13T01:41:17.412Z,100.00
2023-04-13T01:43:46.845Z,100.00
2023-04-13T01:46:19.597Z,100.00
2023-04-13T01:48:55.848Z,100.00
2023-04-13T01:51:40.003Z,100.00
2023-04-13T01:54:12.827Z,100.00
2023-04-13T01:56:43.420Z,100.00
2023-04-13T01:59:12.466Z,100.00
2023-04-13T02:01:43.248Z,100.00
2023-04-13T02:04:11.589Z,100.00
2023-04-13T02:06:42.625Z,100.00
2023-04-13T02:09:11.908Z,100.00
2023-04-13T02:11:41.138Z,100.00
2023-04-13T02:14:09.686Z,100.00
2023-04-13T02:16:38.996Z,100.00
2023-04-13T02:19:09.380Z,100.00
2023-04-13T02:21:37.498Z,100.00
2023-04-13T02:24:06.353Z,100.00
2023-04-13T02:26:34.550Z,100.00
2023-04-13T02:29:02.648Z,100.00
2023-04-13T02:31:31.950Z,100.00
2023-04-13T02:34:01.164Z,100.00
2023-04-13T02:36:33.076Z,100.00
2023-04-13T02:39:06.941Z,100.00
2023-04-13T02:41:35.699Z,100.00
2023-04-13T02:44:03.820Z,100.00
2023-04-13T02:46:44.779Z,100.00
2023-04-13T02:49:17.153Z,100.00
2023-04-13T02:51:57.489Z,100.00
2023-04-13T02:54:38.925Z,100.00
2023-04-13T02:57:07.001Z,100.00
2023-04-13T02:59:40.245Z,100.00
2023-04-13T03:02:10.284Z,100.00
2023-04-13T03:04:39.415Z,100.00
2023-04-13T03:07:10.176Z,100.00
2023-04-13T03:09:44.779Z,100.00
2023-04-13T03:12:13.316Z,100.00
2023-04-13T03:14:44.031Z,100.00
2023-04-13T03:17:12.761Z,100.00
2023-04-13T03:19:46.480Z,100.00
2023-04-13T03:22:17.445Z,100.00
2023-04-13T03:24:47.837Z,100.00
2023-04-13T03:27:23.835Z,100.00
2023-04-13T03:29:54.655Z,100.00
2023-04-13T03:32:23.964Z,100.00
2023-04-13T03:34:59.044Z,100.00
2023-04-13T03:37:30.425Z,100.00
2023-04-13T03:40:05.281Z,100.00
2023-04-13T03:42:42.033Z,100.00
2023-04-13T03:45:11.342Z,100.00
2023-04-13T03:47:41.057Z,100.00
2023-04-13T03:50:11.548Z,100.00
2023-04-13T03:52:41.750Z,100.00
2023-04-13T03:55:10.772Z,100.00
2023-04-13T03:57:40.838Z,100.00
2023-04-13T04:00:14.426Z,100.00
2023-04-13T04:02:47.643Z,100.00
2023-04-13T04:05:23.974Z,100.00
2023-04-13T04:08:01.925Z,100.00
2023-04-13T04:10:30.503Z,100.00
2023-04-13T04:13:00.475Z,100.00
2023-04-13T04:15:29.822Z,100.00
2023-04-13T04:20:59.297Z,100.00
2023-04-13T04:23:30.515Z,100.00
2023-04-13T04:26:04.343Z,100.00
2023-04-13T04:28:42.623Z,100.00
2023-04-13T04:31:18.137Z,100.00
2023-04-13T04:33:51.831Z,100.00
2023-04-13T04:36:21.049Z,100.00
2023-04-13T04:39:02.417Z,100.00
2023-04-13T04:41:37.543Z,100.00
2023-04-13T04:44:08.348Z,100.00
2023-04-13T04:46:41.768Z,100.00
2023-04-13T04:49:14.433Z,100.00
2023-04-13T04:51:42.821Z,100.00
2023-04-13T04:54:16.871Z,100.00
2023-04-13T04:56:47.934Z,100.00
2023-04-13T04:59:18.251Z,100.00
2023-04-13T05:01:56.971Z,100.00
2023-04-13T05:04:25.131Z,100.00
2023-04-13T05:06:53.996Z,100.00
2023-04-13T05:09:28.192Z,100.00
2023-04-13T05:11:58.102Z,100.00
2023-04-13T05:14:26.236Z,100.00
2023-04-13T05:16:54.666Z,100.00
2023-04-13T05:19:30.194Z,100.00
2023-04-13T05:22:03.558Z,100.00
2023-04-13T05:24:39.962Z,100.00
2023-04-13T05:27:13.491Z,100.00
2023-04-13T05:29:42.155Z,100.00
2023-04-13T05:32:10.634Z,100.00
2023-04-13T05:34:39.254Z,100.00
2023-04-13T05:37:14.674Z,100.00
2023-04-13T05:39:46.613Z,100.00
2023-04-13T05:42:16.993Z,100.00
2023-04-13T05:44:46.643Z,100.00
2023-04-13T05:47:17.048Z,100.00
2023-04-13T05:49:47.974Z,100.00
2023-04-13T05:52:21.396Z,100.00
2023-04-13T05:54:52.627Z,100.00
2023-04-13T05:57:22.096Z,100.00
2023-04-13T05:59:53.475Z,100.00
2023-04-13T06:02:26.420Z,100.00
2023-04-13T06:04:55.445Z,100.00
2023-04-13T06:07:23.759Z,100.00
2023-04-13T06:09:53.180Z,100.00
2023-04-13T06:12:24.115Z,100.00
2023-04-13T06:14:54.428Z,100.00
2023-04-13T06:17:22.529Z,100.00
2023-04-13T06:19:50.648Z,100.00
2023-04-13T06:22:18.742Z,100.00
2023-04-13T06:24:46.874Z,100.00
2023-04-13T06:27:17.308Z,100.00
2023-04-13T06:29:47.593Z,100.00
2023-04-13T06:32:16.258Z,100.00
2023-04-13T06:34:45.230Z,100.00
2023-04-13T06:37:14.139Z,100.00
2023-04-13T06:39:47.552Z,100.00
2023-04-13T06:42:19.052Z,100.00
2023-04-13T06:44:59.211Z,100.00
2023-04-13T06:47:32.442Z,100.00
2023-04-13T06:50:04.879Z,100.00
2023-04-13T06:52:33.261Z,100.00
2023-04-13T06:55:02.019Z,100.00
2023-04-13T06:57:36.160Z,100.00
2023-04-13T07:00:15.421Z,100.00
2023-04-13T07:02:50.816Z,100.00
2023-04-13T07:05:19.954Z,100.00
2023-04-13T07:07:51.879Z,100.00
2023-04-13T07:10:21.641Z,100.00
2023-04-13T07:12:51.929Z,100.00
2023-04-13T07:15:23.369Z,99.74
2023-04-13T07:17:52.603Z,97.56
2023-04-13T07:20:20.805Z,97.94
2023-04-13T07:22:49.686Z,97.52
2023-04-13T07:25:18.046Z,96.00
2023-04-13T07:27:47.184Z,95.33
2023-04-13T07:30:17.037Z,96.04
2023-04-13T07:32:48.173Z,95.90
2023-04-13T07:35:17.055Z,95.12
2023-04-13T07:37:51.413Z,92.43
2023-04-13T07:40:21.752Z,92.52
2023-04-13T07:42:52.988Z,92.47
2023-04-13T07:45:22.676Z,92.91
2023-04-13T07:47:53.582Z,90.90
2023-04-13T07:50:23.154Z,89.98
2023-04-13T07:52:52.335Z,86.53
2023-04-13T07:55:23.612Z,88.48
2023-04-13T07:57:53.144Z,86.35
2023-04-13T08:00:23.288Z,87.65
2023-04-13T08:02:55.636Z,85.27
2023-04-13T08:05:26.087Z,84.64
2023-04-13T08:07:54.590Z,84.95
2023-04-13T08:10:22.890Z,85.99
2023-04-13T08:12:51.526Z,84.34
2023-04-13T08:15:22.841Z,84.73
2023-04-13T08:17:51.592Z,83.12
2023-04-13T08:20:21.183Z,83.00
2023-04-13T08:22:52.187Z,83.70
2023-04-13T08:25:22.043Z,84.53
2023-04-13T08:27:50.594Z,83.70
2023-04-13T08:30:18.906Z,83.27
2023-04-13T08:32:58.286Z,84.45
2023-04-13T08:35:26.665Z,82.33
2023-04-13T08:37:55.097Z,81.79
2023-04-13T08:40:23.269Z,82.85
2023-04-13T08:42:54.167Z,83.63
2023-04-13T08:45:22.476Z,81.45
2023-04-13T08:47:51.820Z,81.20
2023-04-13T08:50:23.667Z,82.77
2023-04-13T08:52:55.647Z,84.19
2023-04-13T08:55:26.451Z,82.84
2023-04-13T08:57:58.709Z,83.25
2023-04-13T09:00:27.581Z,84.13
2023-04-13T09:03:05.631Z,84.26
2023-04-13T09:05:42.568Z,84.41
2023-04-13T09:08:13.721Z,84.08
2023-04-13T09:10:45.452Z,84.00
2023-04-13T09:13:14.078Z,85.77
2023-04-13T09:15:47.198Z,82.91
2023-04-13T09:18:30.692Z,82.80
2023-04-13T09:21:06.549Z,84.03
2023-04-13T09:23:34.689Z,83.98
2023-04-13T09:26:07.638Z,84.19
2023-04-13T09:28:35.883Z,83.50
2023-04-13T09:31:05.520Z,82.98
2023-04-13T09:33:37.141Z,83.09
2023-04-13T09:36:13.321Z,82.01
2023-04-13T09:38:41.374Z,81.74
2023-04-13T09:41:09.747Z,79.95
2023-04-13T09:43:37.983Z,79.68
2023-04-13T09:46:06.266Z,80.95
2023-04-13T09:48:34.354Z,82.68
2023-04-13T09:51:04.455Z,83.56
2023-04-13T09:53:43.028Z,79.72
2023-04-13T09:56:11.164Z,77.68
2023-04-13T09:58:42.425Z,76.19
2023-04-13T10:01:11.281Z,75.91
2023-04-13T10:03:39.599Z,75.18
2023-04-13T10:06:08.816Z,74.72
2023-04-13T10:08:39.103Z,76.81
2023-04-13T10:11:12.761Z,75.13
2023-04-13T10:13:44.807Z,72.79
2023-04-13T10:16:37.536Z,74.98
2023-04-13T10:19:08.686Z,72.13
2023-04-13T10:21:39.525Z,70.46
2023-04-13T10:24:12.224Z,68.60
2023-04-13T10:26:43.992Z,69.33
2023-04-13T10:29:14.541Z,69.01
2023-04-13T10:31:46.779Z,69.20
2023-04-13T10:34:25.395Z,71.10
2023-04-13T10:36:56.028Z,69.38
2023-04-13T10:39:27.901Z,66.78
2023-04-13T10:42:04.063Z,65.47
2023-04-13T10:44:42.733Z,67.37
2023-04-13T10:47:11.293Z,68.34
2023-04-13T10:49:40.997Z,69.45
2023-04-13T10:52:10.203Z,72.35
2023-04-13T10:54:38.287Z,72.05
2023-04-13T10:57:09.112Z,73.25
2023-04-13T10:59:53.618Z,71.11
2023-04-13T11:02:26.292Z,71.76
2023-04-13T11:04:55.210Z,70.06
2023-04-13T11:07:26.213Z,72.15
2023-04-13T11:12:32.051Z,66.40
2023-04-13T11:15:00.150Z,65.64
2023-04-13T11:17:28.841Z,65.32
2023-04-13T11:19:57.794Z,66.46
2023-04-13T11:22:28.073Z,64.64
2023-04-13T11:25:09.097Z,65.26
2023-04-13T11:27:38.750Z,64.51
2023-04-13T11:30:09.699Z,65.45
2023-04-13T11:32:41.600Z,64.66
2023-04-13T11:35:10.188Z,62.65
2023-04-13T11:37:38.613Z,65.00
2023-04-13T11:40:13.012Z,65.61
2023-04-13T11:42:43.886Z,65.05
2023-04-13T11:45:12.808Z,65.82
2023-04-13T11:47:41.359Z,66.43
2023-04-13T11:50:09.944Z,65.72
2023-04-13T11:52:38.210Z,67.84
2023-04-13T11:55:19.105Z,66.82
2023-04-13T11:57:52.560Z,65.21
2023-04-13T12:00:24.574Z,65.17
2023-04-13T12:03:02.057Z,65.21
2023-04-13T12:05:33.929Z,65.98
2023-04-13T12:08:04.264Z,67.28
2023-04-13T12:10:40.754Z,68.18
2023-04-13T12:13:26.210Z,68.73
2023-04-13T12:16:09.552Z,69.17
2023-04-13T12:18:47.030Z,69.52
2023-04-13T12:21:16.805Z,69.75
2023-04-13T12:23:54.060Z,69.38
2023-04-13T12:28:57.850Z,68.36
2023-04-13T12:31:26.398Z,69.12
2023-04-13T12:33:54.521Z,68.64
2023-04-13T12:36:22.586Z,68.25
2023-04-13T12:38:51.050Z,69.37
2023-04-13T12:41:19.135Z,68.54
2023-04-13T12:43:47.198Z,67.97
2023-04-13T12:46:17.345Z,67.93
2023-04-13T12:48:45.483Z,66.40
2023-04-13T12:51:13.646Z,67.41
2023-04-13T12:53:42.067Z,66.83
2023-04-13T12:56:11.100Z,67.86
2023-04-13T12:58:39.204Z,69.38
2023-04-13T13:01:08.646Z,69.04
2023-04-13T13:03:38.457Z,68.47
2023-04-13T13:06:08.151Z,69.78
2023-04-13T13:08:39.344Z,69.82
2023-04-13T13:11:08.945Z,69.94
2023-04-13T13:13:37.003Z,68.72
2023-04-13T13:16:05.571Z,69.33
2023-04-13T13:18:49.145Z,69.49
2023-04-13T13:21:19.471Z,68.39
2023-04-13T13:23:47.733Z,68.52
2023-04-13T13:28:47.284Z,67.70
2023-04-13T13:31:15.552Z,68.21
2023-04-13T13:33:44.239Z,67.19
2023-04-13T13:36:13.975Z,67.19
2023-04-13T13:38:43.847Z,66.45
2023-04-13T13:41:11.973Z,67.49
2023-04-13T13:43:40.220Z,66.79
2023-04-13T13:46:08.777Z,67.19
2023-04-13T13:48:39.404Z,65.91
2023-04-13T13:51:23.282Z,64.77
2023-04-13T13:53:53.018Z,64.62
2023-04-13T13:56:21.201Z,65.48
2023-04-13T13:58:49.624Z,65.32
2023-04-13T14:01:18.118Z,67.73
2023-04-13T14:03:46.527Z,66.65
2023-04-13T14:06:14.639Z,65.67
2023-04-13T14:08:42.674Z,63.11
2023-04-13T14:11:12.881Z,63.21
2023-04-13T14:13:41.386Z,62.54
2023-04-13T14:16:09.620Z,62.97
2023-04-13T14:18:37.817Z,64.07
2023-04-13T14:21:06.460Z,63.58
2023-04-13T14:23:34.530Z,61.50
2023-04-13T14:26:02.944Z,62.00
2023-04-13T14:28:32.645Z,62.19
2023-04-13T14:31:00.779Z,62.41
2023-04-13T14:33:28.824Z,62.92
2023-04-13T14:35:56.921Z,62.84
2023-04-13T14:38:25.341Z,63.77
2023-04-13T14:40:53.365Z,64.41
2023-04-13T14:43:21.753Z,64.14
2023-04-13T14:45:55.128Z,64.93
2023-04-13T14:48:23.940Z,65.71
2023-04-13T14:50:52.827Z,66.50
2023-04-13T14:53:21.509Z,66.65
2023-04-13T14:55:49.600Z,67.88
2023-04-13T14:58:17.663Z,68.05
2023-04-13T15:00:45.768Z,68.95
2023-04-13T15:03:16.209Z,70.72
2023-04-13T15:05:46.260Z,71.23
2023-04-13T15:08:16.835Z,70.00
2023-04-13T15:10:44.985Z,70.49
2023-04-13T15:13:13.139Z,70.40
2023-04-13T15:15:41.375Z,71.18
2023-04-13T15:18:09.526Z,70.58
2023-04-13T15:20:39.054Z,71.07
2023-04-13T15:23:07.167Z,71.06
2023-04-13T15:25:35.263Z,69.72
2023-04-13T15:28:03.477Z,70.22
2023-04-13T15:30:32.067Z,70.81
2023-04-13T15:33:02.305Z,68.15
2023-04-13T15:35:31.085Z,69.43
2023-04-13T15:38:02.058Z,69.72
2023-04-13T15:40:32.742Z,68.94
2023-04-13T15:43:00.844Z,68.05
2023-04-13T15:45:28.922Z,69.52
2023-04-13T15:47:57.674Z,71.94
2023-04-13T15:50:26.185Z,70.20
2023-04-13T15:52:54.220Z,69.09
2023-04-13T15:55:24.048Z,68.83
2023-04-13T15:57:53.888Z,69.87
2023-04-13T16:00:22.720Z,67.91
2023-04-13T16:02:50.871Z,68.85
2023-04-13T16:05:19.740Z,67.55
2023-04-13T16:07:48.008Z,68.40
2023-04-13T16:10:16.581Z,68.67
2023-04-13T16:12:46.071Z,69.13
2023-04-13T16:15:14.563Z,70.47
2023-04-13T16:17:44.176Z,68.72
2023-04-13T16:20:19.843Z,68.26
2023-04-13T16:22:49.200Z,68.74
2023-04-13T16:25:18.893Z,68.26
2023-04-13T16:27:49.082Z,69.30
2023-04-13T16:30:20.167Z,70.41
2023-04-13T16:32:50.401Z,70.23
2023-04-13T16:35:18.792Z,70.09
2023-04-13T16:37:46.947Z,70.76
2023-04-13T16:40:16.752Z,70.73
2023-04-13T16:42:46.136Z,71.54
2023-04-13T16:45:15.757Z,71.69
2023-04-13T16:47:44.107Z,72.33
2023-04-13T16:50:12.697Z,71.12
2023-04-13T16:52:40.900Z,71.30
2023-04-13T16:55:13.971Z,72.54
2023-04-13T16:57:42.830Z,74.43
2023-04-13T17:00:11.832Z,76.05
2023-04-13T17:02:41.992Z,77.71
2023-04-13T17:05:11.456Z,79.91
2023-04-13T17:07:40.120Z,78.94
2023-04-13T17:10:09.798Z,78.21
2023-04-13T17:12:37.869Z,78.74
2023-04-13T17:15:06.852Z,80.60
2023-04-13T17:17:35.717Z,82.72
2023-04-13T17:20:06.242Z,82.45
2023-04-13T17:22:34.309Z,83.30
2023-04-13T17:25:02.909Z,80.99
2023-04-13T17:27:30.999Z,81.30
2023-04-13T17:29:59.070Z,80.49
2023-04-13T17:34:56.988Z,82.49
2023-04-13T17:37:27.025Z,83.99
2023-04-13T17:39:55.116Z,85.66
2023-04-13T17:42:23.178Z,87.45
2023-04-13T17:44:51.271Z,87.79
2023-04-13T17:47:19.380Z,89.10
2023-04-13T17:49:47.457Z,89.67
2023-04-13T17:52:15.694Z,90.44
2023-04-13T17:54:45.300Z,91.01
2023-04-13T17:57:13.374Z,91.38
2023-04-13T17:59:41.973Z,92.37
2023-04-13T18:02:10.074Z,92.08
2023-04-13T18:04:38.735Z,92.26
2023-04-13T18:07:07.399Z,93.07
2023-04-13T18:09:35.650Z,93.47
2023-04-13T18:12:05.477Z,93.47
2023-04-13T18:14:33.579Z,94.68
2023-04-13T18:17:02.122Z,95.26
2023-04-13T18:19:32.290Z,95.69
2023-04-13T18:22:00.437Z,95.73
2023-04-13T18:24:28.479Z,96.21
2023-04-13T18:26:56.596Z,96.71
2023-04-13T18:29:26.009Z,96.70
2023-04-13T18:31:54.529Z,96.98
2023-04-13T18:34:22.665Z,97.46
2023-04-13T18:36:50.711Z,97.91
2023-04-13T18:39:19.247Z,98.48
2023-04-13T18:41:47.344Z,98.29
2023-04-13T18:44:15.500Z,98.38
2023-04-13T18:46:45.807Z,98.27
2023-04-13T18:49:13.893Z,98.45
2023-04-13T18:51:42.008Z,98.33
2023-04-13T18:54:11.617Z,98.58
2023-04-13T18:56:39.760Z,98.98
2023-04-13T18:59:09.015Z,99.47
2023-04-13T19:01:37.628Z,100.00
2023-04-13T19:04:07.513Z,100.00
2023-04-13T19:06:36.267Z,100.00
2023-04-13T19:09:04.732Z,100.00
2023-04-13T19:11:46.339Z,100.00
2023-04-13T19:14:14.440Z,100.00
2023-04-13T19:16:45.835Z,100.00
2023-04-13T19:19:16.150Z,100.00
2023-04-13T19:21:44.242Z,100.00
2023-04-13T19:24:13.362Z,100.00
2023-04-13T19:26:41.888Z,100.00
2023-04-13T19:29:12.680Z,100.00
2023-04-13T19:31:42.769Z,100.00
2023-04-13T19:34:11.567Z,100.00
2023-04-13T19:36:41.185Z,100.00
2023-04-13T19:39:10.169Z,100.00
2023-04-13T19:41:39.251Z,100.00
2023-04-13T19:44:08.798Z,100.00
2023-04-13T19:46:36.972Z,100.00
2023-04-13T19:49:05.082Z,100.00
2023-04-13T19:51:33.385Z,100.00
2023-04-13T19:54:04.983Z,100.00
2023-04-13T19:56:34.529Z,100.00
2023-04-13T19:59:03.221Z,100.00
2023-04-13T20:01:33.027Z,100.00
2023-04-13T20:04:02.112Z,100.00
2023-04-13T20:06:30.578Z,100.00
2023-04-13T20:09:09.882Z,100.00
2023-04-13T20:11:37.966Z,100.00
2023-04-13T20:14:06.244Z,100.00
2023-04-13T20:16:35.516Z,100.00
2023-04-13T20:19:03.743Z,100.00
2023-04-13T20:21:33.028Z,100.00
2023-04-13T20:24:01.273Z,100.00
2023-04-13T20:26:31.327Z,100.00
2023-04-13T20:28:59.485Z,100.00
2023-04-13T20:31:27.550Z,100.00
2023-04-13T20:33:56.015Z,100.00
2023-04-13T20:36:25.167Z,100.00
2023-04-13T20:38:54.329Z,100.00
2023-04-13T20:41:24.554Z,100.00
2023-04-13T20:43:54.880Z,100.00
2023-04-13T20:46:25.354Z,100.00
2023-04-13T20:48:53.963Z,100.00
2023-04-13T20:51:24.127Z,100.00
2023-04-13T20:53:52.161Z,100.00
2023-04-13T20:56:23.778Z,100.00
2023-04-13T20:58:56.092Z,100.00
2023-04-13T21:01:25.292Z,100.00
2023-04-13T21:03:54.042Z,100.00
2023-04-13T21:06:22.901Z,100.00
2023-04-13T21:08:52.807Z,100.00
2023-04-13T21:11:21.399Z,100.00
2023-04-13T21:13:49.497Z,100.00
2023-04-13T21:16:19.536Z,100.00
2023-04-13T21:18:47.631Z,100.00
2023-04-13T21:21:15.812Z,100.00
2023-04-13T21:23:43.872Z,100.00
2023-04-13T21:26:12.073Z,100.00
2023-04-13T21:28:40.106Z,100.00
2023-04-13T21:31:08.636Z,100.00
2023-04-13T21:33:38.076Z,100.00
2023-04-13T21:38:40.328Z,100.00
2023-04-13T21:41:12.346Z,100.00
2023-04-13T21:43:42.707Z,100.00
2023-04-13T21:46:11.180Z,100.00
2023-04-13T21:48:40.794Z,100.00
2023-04-13T21:51:09.522Z,100.00
2023-04-13T21:53:37.652Z,100.00
2023-04-13T21:56:06.522Z,100.00
2023-04-13T21:58:38.664Z,100.00
2023-04-13T22:01:07.280Z,100.00
2023-04-13T22:03:38.792Z,100.00
2023-04-13T22:06:09.715Z,100.00
2023-04-13T22:08:37.928Z,100.00
2023-04-13T22:11:06.655Z,100.00
2023-04-13T22:13:34.779Z,100.00
2023-04-13T22:16:02.912Z,100.00
2023-04-13T22:18:31.048Z,100.00
2023-04-13T22:20:59.741Z,100.00
2023-04-13T22:23:30.738Z,100.00
2023-04-13T22:26:01.468Z,100.00
2023-04-13T22:28:29.933Z,100.00
2023-04-13T22:30:58.017Z,100.00
2023-04-13T22:33:32.009Z,100.00
2023-04-13T22:36:00.137Z,100.00
2023-04-13T22:38:29.618Z,100.00
2023-04-13T22:40:57.691Z,100.00
2023-04-13T22:43:25.905Z,100.00
2023-04-13T22:46:00.183Z,100.00
2023-04-13T22:48:28.761Z,100.00
2023-04-13T22:50:57.743Z,100.00
2023-04-13T22:53:26.033Z,100.00
2023-04-13T22:55:55.607Z,100.00
2023-04-13T22:58:23.675Z,100.00
2023-04-13T23:00:51.752Z,100.00
2023-04-13T23:03:20.106Z,100.00
2023-04-13T23:05:48.825Z,100.00
2023-04-13T23:08:16.946Z,100.00
2023-04-13T23:10:44.991Z,100.00
2023-04-13T23:13:14.459Z,100.00
2023-04-13T23:15:42.500Z,100.00
2023-04-13T23:18:10.990Z,100.00
2023-04-13T23:20:39.045Z,100.00
2023-04-13T23:23:07.105Z,100.00
2023-04-13T23:25:35.182Z,100.00
2023-04-13T23:28:03.254Z,100.00
2023-04-13T23:30:32.709Z,100.00
2023-04-13T23:33:01.279Z,100.00
2023-04-13T23:35:29.385Z,100.00
2023-04-13T23:37:57.456Z,100.00
2023-04-13T23:40:25.523Z,100.00
2023-04-13T23:42:53.580Z,100.00
2023-04-13T23:45:21.626Z,100.00
2023-04-13T23:47:51.558Z,100.00
2023-04-13T23:50:19.818Z,100.00
2023-04-13T23:52:47.945Z,100.00
2023-04-13T23:55:16.334Z,100.00
2023-04-13T23:57:44.445Z,100.00
